sensor_id;sensor_type;location;lat;lon;timestamp;P1;durP1;ratioP1;P2;durP2;ratioP2
22080;SDS011;11207;59.512;18.050;2023-05-29T00:01:32;2.50;;;2.30;;
22080;SDS011;11207;59.512;18.050;2023-05-29T00:03:59;2.83;;;2.50;;
22080;SDS011;11207;59.512;18.050;2023-05-29T00:06:25;2.57;;;2.20;;
22080;SDS011;11207;59.512;18.050;2023-05-29T00:08:51;2.93;;;2.50;;
22080;SDS011;11207;59.512;18.050;2023-05-29T00:11:16;4.13;;;2.40;;
22080;SDS011;11207;59.512;18.050;2023-05-29T00:13:42;2.97;;;2.43;;
22080;SDS011;11207;59.512;18.050;2023-05-29T00:16:07;3.00;;;2.30;;
22080;SDS011;11207;59.512;18.050;2023-05-29T00:18:34;4.20;;;2.90;;
22080;SDS011;11207;59.512;18.050;2023-05-29T00:21:00;3.07;;;2.77;;
22080;SDS011;11207;59.512;18.050;2023-05-29T00:23:27;2.30;;;2.20;;
22080;SDS011;11207;59.512;18.050;2023-05-29T00:25:52;2.70;;;2.50;;
22080;SDS011;11207;59.512;18.050;2023-05-29T00:28:18;2.80;;;2.27;;
22080;SDS011;11207;59.512;18.050;2023-05-29T00:30:44;2.60;;;2.40;;
22080;SDS011;11207;59.512;18.050;2023-05-29T00:33:10;2.63;;;2.43;;
22080;SDS011;11207;59.512;18.050;2023-05-29T00:35:36;2.73;;;2.50;;
22080;SDS011;11207;59.512;18.050;2023-05-29T00:38:04;2.50;;;2.30;;
22080;SDS011;11207;59.512;18.050;2023-05-29T00:40:29;3.57;;;2.90;;
22080;SDS011;11207;59.512;18.050;2023-05-29T00:42:55;2.90;;;2.60;;
22080;SDS011;11207;59.512;18.050;2023-05-29T00:45:21;2.80;;;2.60;;
22080;SDS011;11207;59.512;18.050;2023-05-29T00:47:48;2.57;;;2.37;;
22080;SDS011;11207;59.512;18.050;2023-05-29T00:50:14;2.97;;;2.60;;
22080;SDS011;11207;59.512;18.050;2023-05-29T00:52:43;2.50;;;2.30;;
22080;SDS011;11207;59.512;18.050;2023-05-29T00:55:10;2.50;;;2.30;;
22080;SDS011;11207;59.512;18.050;2023-05-29T00:57:36;4.70;;;2.77;;
22080;SDS011;11207;59.512;18.050;2023-05-29T01:00:05;2.30;;;2.10;;
22080;SDS011;11207;59.512;18.050;2023-05-29T01:02:38;2.57;;;2.43;;
22080;SDS011;11207;59.512;18.050;2023-05-29T01:05:05;2.60;;;2.40;;
22080;SDS011;11207;59.512;18.050;2023-05-29T01:07:34;2.50;;;2.20;;
22080;SDS011;11207;59.512;18.050;2023-05-29T01:10:00;2.40;;;2.20;;
22080;SDS011;11207;59.512;18.050;2023-05-29T01:20:31;4.50;;;2.17;;
22080;SDS011;11207;59.512;18.050;2023-05-29T01:23:52;4.40;;;2.40;;
22080;SDS011;11207;59.512;18.050;2023-05-29T01:26:07;2.50;;;2.10;;
22080;SDS011;11207;59.512;18.050;2023-05-29T01:28:44;2.23;;;2.13;;
22080;SDS011;11207;59.512;18.050;2023-05-29T01:31:12;2.30;;;2.17;;
22080;SDS011;11207;59.512;18.050;2023-05-29T01:33:42;2.40;;;2.30;;
22080;SDS011;11207;59.512;18.050;2023-05-29T01:36:10;2.37;;;2.17;;
22080;SDS011;11207;59.512;18.050;2023-05-29T01:38:36;2.20;;;2.10;;
22080;SDS011;11207;59.512;18.050;2023-05-29T01:41:02;2.73;;;2.40;;
22080;SDS011;11207;59.512;18.050;2023-05-29T01:43:28;2.30;;;2.13;;
22080;SDS011;11207;59.512;18.050;2023-05-29T01:45:55;3.43;;;2.30;;
22080;SDS011;11207;59.512;18.050;2023-05-29T01:48:21;2.67;;;2.20;;
22080;SDS011;11207;59.512;18.050;2023-05-29T01:50:50;2.27;;;2.10;;
22080;SDS011;11207;59.512;18.050;2023-05-29T01:53:16;2.67;;;2.20;;
22080;SDS011;11207;59.512;18.050;2023-05-29T01:55:42;2.30;;;2.10;;
22080;SDS011;11207;59.512;18.050;2023-05-29T01:58:08;2.43;;;2.20;;
22080;SDS011;11207;59.512;18.050;2023-05-29T02:00:35;2.37;;;2.10;;
22080;SDS011;11207;59.512;18.050;2023-05-29T02:03:01;2.87;;;2.20;;
22080;SDS011;11207;59.512;18.050;2023-05-29T02:05:27;2.30;;;2.20;;
22080;SDS011;11207;59.512;18.050;2023-05-29T02:07:52;2.07;;;1.97;;
22080;SDS011;11207;59.512;18.050;2023-05-29T02:10:18;2.10;;;2.00;;
22080;SDS011;11207;59.512;18.050;2023-05-29T02:12:44;2.17;;;2.07;;
22080;SDS011;11207;59.512;18.050;2023-05-29T02:15:09;2.40;;;2.20;;
22080;SDS011;11207;59.512;18.050;2023-05-29T02:17:35;5.10;;;2.03;;
22080;SDS011;11207;59.512;18.050;2023-05-29T02:20:02;2.10;;;2.00;;
22080;SDS011;11207;59.512;18.050;2023-05-29T02:22:29;2.30;;;2.10;;
22080;SDS011;11207;59.512;18.050;2023-05-29T02:24:54;2.30;;;2.20;;
22080;SDS011;11207;59.512;18.050;2023-05-29T02:27:20;2.37;;;2.20;;
22080;SDS011;11207;59.512;18.050;2023-05-29T02:29:46;2.63;;;2.20;;
22080;SDS011;11207;59.512;18.050;2023-05-29T02:32:15;2.70;;;2.17;;
22080;SDS011;11207;59.512;18.050;2023-05-29T02:34:40;2.97;;;2.10;;
22080;SDS011;11207;59.512;18.050;2023-05-29T02:37:06;2.20;;;2.10;;
22080;SDS011;11207;59.512;18.050;2023-05-29T02:39:33;2.40;;;2.27;;
22080;SDS011;11207;59.512;18.050;2023-05-29T02:41:58;2.30;;;2.20;;
22080;SDS011;11207;59.512;18.050;2023-05-29T02:44:24;2.60;;;2.37;;
22080;SDS011;11207;59.512;18.050;2023-05-29T02:46:49;2.60;;;2.40;;
22080;SDS011;11207;59.512;18.050;2023-05-29T02:49:15;2.43;;;2.33;;
22080;SDS011;11207;59.512;18.050;2023-05-29T02:51:41;2.00;;;1.90;;
22080;SDS011;11207;59.512;18.050;2023-05-29T02:54:07;2.17;;;2.00;;
22080;SDS011;11207;59.512;18.050;2023-05-29T02:56:32;2.70;;;2.50;;
22080;SDS011;11207;59.512;18.050;2023-05-29T02:58:59;4.23;;;2.33;;
22080;SDS011;11207;59.512;18.050;2023-05-29T03:01:25;2.13;;;2.03;;
22080;SDS011;11207;59.512;18.050;2023-05-29T03:03:51;2.20;;;2.10;;
22080;SDS011;11207;59.512;18.050;2023-05-29T03:06:16;2.33;;;2.13;;
22080;SDS011;11207;59.512;18.050;2023-05-29T03:08:42;2.47;;;2.30;;
22080;SDS011;11207;59.512;18.050;2023-05-29T03:11:10;2.40;;;2.30;;
22080;SDS011;11207;59.512;18.050;2023-05-29T03:13:39;4.10;;;2.43;;
22080;SDS011;11207;59.512;18.050;2023-05-29T03:16:05;2.43;;;2.23;;
22080;SDS011;11207;59.512;18.050;2023-05-29T03:18:33;2.27;;;2.17;;
22080;SDS011;11207;59.512;18.050;2023-05-29T03:20:59;2.63;;;2.23;;
22080;SDS011;11207;59.512;18.050;2023-05-29T03:23:25;2.73;;;2.53;;
22080;SDS011;11207;59.512;18.050;2023-05-29T03:25:51;2.67;;;2.47;;
22080;SDS011;11207;59.512;18.050;2023-05-29T03:28:16;2.10;;;2.00;;
22080;SDS011;11207;59.512;18.050;2023-05-29T03:30:42;2.17;;;2.03;;
22080;SDS011;11207;59.512;18.050;2023-05-29T03:33:07;4.47;;;2.50;;
22080;SDS011;11207;59.512;18.050;2023-05-29T03:35:33;2.23;;;2.10;;
22080;SDS011;11207;59.512;18.050;2023-05-29T03:37:59;4.17;;;2.33;;
22080;SDS011;11207;59.512;18.050;2023-05-29T03:40:24;2.13;;;2.03;;
22080;SDS011;11207;59.512;18.050;2023-05-29T03:42:50;2.53;;;2.33;;
22080;SDS011;11207;59.512;18.050;2023-05-29T03:45:16;2.77;;;2.23;;
22080;SDS011;11207;59.512;18.050;2023-05-29T03:47:41;2.47;;;2.30;;
22080;SDS011;11207;59.512;18.050;2023-05-29T03:50:07;2.57;;;2.17;;
22080;SDS011;11207;59.512;18.050;2023-05-29T03:52:33;2.60;;;2.40;;
22080;SDS011;11207;59.512;18.050;2023-05-29T03:54:59;3.90;;;2.10;;
22080;SDS011;11207;59.512;18.050;2023-05-29T03:57:24;3.23;;;2.13;;
22080;SDS011;11207;59.512;18.050;2023-05-29T03:59:51;2.40;;;2.20;;
22080;SDS011;11207;59.512;18.050;2023-05-29T04:02:16;4.80;;;2.47;;
22080;SDS011;11207;59.512;18.050;2023-05-29T04:04:42;3.63;;;2.60;;
22080;SDS011;11207;59.512;18.050;2023-05-29T04:07:08;3.33;;;2.23;;
22080;SDS011;11207;59.512;18.050;2023-05-29T04:09:34;4.90;;;2.40;;
22080;SDS011;11207;59.512;18.050;2023-05-29T04:12:00;2.43;;;2.20;;
22080;SDS011;11207;59.512;18.050;2023-05-29T04:14:30;3.13;;;2.27;;
22080;SDS011;11207;59.512;18.050;2023-05-29T04:16:56;5.30;;;2.30;;
22080;SDS011;11207;59.512;18.050;2023-05-29T04:19:22;2.57;;;2.30;;
22080;SDS011;11207;59.512;18.050;2023-05-29T04:21:47;4.37;;;2.30;;
22080;SDS011;11207;59.512;18.050;2023-05-29T04:24:14;2.80;;;2.07;;
22080;SDS011;11207;59.512;18.050;2023-05-29T04:26:40;2.30;;;2.10;;
22080;SDS011;11207;59.512;18.050;2023-05-29T04:29:06;3.93;;;2.40;;
22080;SDS011;11207;59.512;18.050;2023-05-29T04:31:35;2.00;;;1.90;;
22080;SDS011;11207;59.512;18.050;2023-05-29T04:34:04;3.40;;;2.40;;
22080;SDS011;11207;59.512;18.050;2023-05-29T04:36:30;3.00;;;2.20;;
22080;SDS011;11207;59.512;18.050;2023-05-29T04:38:58;2.23;;;2.03;;
22080;SDS011;11207;59.512;18.050;2023-05-29T04:41:24;2.70;;;2.10;;
22080;SDS011;11207;59.512;18.050;2023-05-29T04:43:55;2.63;;;2.03;;
22080;SDS011;11207;59.512;18.050;2023-05-29T04:46:22;5.47;;;2.63;;
22080;SDS011;11207;59.512;18.050;2023-05-29T04:48:49;3.97;;;2.10;;
22080;SDS011;11207;59.512;18.050;2023-05-29T04:51:18;2.10;;;1.90;;
22080;SDS011;11207;59.512;18.050;2023-05-29T04:53:45;2.30;;;2.10;;
22080;SDS011;11207;59.512;18.050;2023-05-29T04:56:14;2.23;;;2.00;;
22080;SDS011;11207;59.512;18.050;2023-05-29T04:58:40;2.93;;;2.10;;
22080;SDS011;11207;59.512;18.050;2023-05-29T05:01:06;3.63;;;1.80;;
22080;SDS011;11207;59.512;18.050;2023-05-29T05:03:40;2.47;;;2.03;;
22080;SDS011;11207;59.512;18.050;2023-05-29T05:06:06;4.73;;;2.00;;
22080;SDS011;11207;59.512;18.050;2023-05-29T05:08:32;2.20;;;2.00;;
22080;SDS011;11207;59.512;18.050;2023-05-29T05:11:02;3.00;;;2.00;;
22080;SDS011;11207;59.512;18.050;2023-05-29T05:13:27;2.40;;;2.00;;
22080;SDS011;11207;59.512;18.050;2023-05-29T05:15:53;3.70;;;2.07;;
22080;SDS011;11207;59.512;18.050;2023-05-29T05:18:19;3.50;;;2.23;;
22080;SDS011;11207;59.512;18.050;2023-05-29T05:20:45;4.07;;;2.10;;
22080;SDS011;11207;59.512;18.050;2023-05-29T05:23:11;3.30;;;2.00;;
22080;SDS011;11207;59.512;18.050;2023-05-29T05:25:36;3.03;;;1.90;;
22080;SDS011;11207;59.512;18.050;2023-05-29T05:28:03;3.07;;;1.90;;
22080;SDS011;11207;59.512;18.050;2023-05-29T05:30:30;2.77;;;2.00;;
22080;SDS011;11207;59.512;18.050;2023-05-29T05:32:55;4.07;;;1.90;;
22080;SDS011;11207;59.512;18.050;2023-05-29T05:35:22;7.47;;;2.00;;
22080;SDS011;11207;59.512;18.050;2023-05-29T05:37:50;2.97;;;2.10;;
22080;SDS011;11207;59.512;18.050;2023-05-29T05:40:15;2.87;;;1.80;;
22080;SDS011;11207;59.512;18.050;2023-05-29T05:42:41;4.13;;;2.03;;
22080;SDS011;11207;59.512;18.050;2023-05-29T05:45:07;3.90;;;1.80;;
22080;SDS011;11207;59.512;18.050;2023-05-29T05:47:33;2.20;;;2.00;;
22080;SDS011;11207;59.512;18.050;2023-05-29T05:49:59;2.43;;;2.00;;
22080;SDS011;11207;59.512;18.050;2023-05-29T05:52:25;3.07;;;1.90;;
22080;SDS011;11207;59.512;18.050;2023-05-29T05:54:55;2.70;;;1.83;;
22080;SDS011;11207;59.512;18.050;2023-05-29T05:57:20;4.20;;;2.00;;
22080;SDS011;11207;59.512;18.050;2023-05-29T05:59:48;3.57;;;2.07;;
22080;SDS011;11207;59.512;18.050;2023-05-29T06:02:13;4.37;;;2.37;;
22080;SDS011;11207;59.512;18.050;2023-05-29T06:04:41;6.17;;;2.20;;
22080;SDS011;11207;59.512;18.050;2023-05-29T06:07:06;3.83;;;1.93;;
22080;SDS011;11207;59.512;18.050;2023-05-29T06:09:32;5.80;;;2.17;;
22080;SDS011;11207;59.512;18.050;2023-05-29T06:11:58;3.07;;;1.57;;
22080;SDS011;11207;59.512;18.050;2023-05-29T06:14:24;2.83;;;1.80;;
22080;SDS011;11207;59.512;18.050;2023-05-29T06:16:50;2.77;;;1.80;;
22080;SDS011;11207;59.512;18.050;2023-05-29T06:19:15;1.77;;;1.67;;
22080;SDS011;11207;59.512;18.050;2023-05-29T06:21:41;5.07;;;2.03;;
22080;SDS011;11207;59.512;18.050;2023-05-29T06:24:07;2.10;;;1.77;;
22080;SDS011;11207;59.512;18.050;2023-05-29T06:26:33;3.67;;;1.70;;
22080;SDS011;11207;59.512;18.050;2023-05-29T06:28:58;2.60;;;2.07;;
22080;SDS011;11207;59.512;18.050;2023-05-29T06:31:24;2.90;;;1.70;;
22080;SDS011;11207;59.512;18.050;2023-05-29T06:33:49;5.70;;;1.97;;
22080;SDS011;11207;59.512;18.050;2023-05-29T06:36:15;3.33;;;1.90;;
22080;SDS011;11207;59.512;18.050;2023-05-29T06:38:45;2.77;;;1.80;;
22080;SDS011;11207;59.512;18.050;2023-05-29T06:41:13;5.37;;;2.17;;
22080;SDS011;11207;59.512;18.050;2023-05-29T06:43:39;4.80;;;2.30;;
22080;SDS011;11207;59.512;18.050;2023-05-29T06:46:04;2.87;;;1.83;;
22080;SDS011;11207;59.512;18.050;2023-05-29T06:48:33;3.83;;;1.60;;
22080;SDS011;11207;59.512;18.050;2023-05-29T06:51:00;2.80;;;1.90;;
22080;SDS011;11207;59.512;18.050;2023-05-29T06:53:26;4.07;;;2.07;;
22080;SDS011;11207;59.512;18.050;2023-05-29T06:55:52;3.20;;;1.67;;
22080;SDS011;11207;59.512;18.050;2023-05-29T06:58:18;4.10;;;2.00;;
22080;SDS011;11207;59.512;18.050;2023-05-29T07:00:43;3.23;;;1.80;;
22080;SDS011;11207;59.512;18.050;2023-05-29T07:03:09;3.97;;;2.03;;
22080;SDS011;11207;59.512;18.050;2023-05-29T07:05:34;4.67;;;2.13;;
22080;SDS011;11207;59.512;18.050;2023-05-29T07:08:00;3.87;;;1.97;;
22080;SDS011;11207;59.512;18.050;2023-05-29T07:10:26;3.83;;;1.90;;
22080;SDS011;11207;59.512;18.050;2023-05-29T07:12:51;2.60;;;1.80;;
22080;SDS011;11207;59.512;18.050;2023-05-29T07:15:17;3.27;;;1.53;;
22080;SDS011;11207;59.512;18.050;2023-05-29T07:17:43;3.30;;;1.70;;
22080;SDS011;11207;59.512;18.050;2023-05-29T07:20:08;3.03;;;1.60;;
22080;SDS011;11207;59.512;18.050;2023-05-29T07:22:34;4.93;;;1.87;;
22080;SDS011;11207;59.512;18.050;2023-05-29T07:25:00;4.27;;;2.00;;
22080;SDS011;11207;59.512;18.050;2023-05-29T07:27:26;3.67;;;1.70;;
22080;SDS011;11207;59.512;18.050;2023-05-29T07:29:52;4.40;;;1.70;;
22080;SDS011;11207;59.512;18.050;2023-05-29T07:32:18;5.27;;;2.47;;
22080;SDS011;11207;59.512;18.050;2023-05-29T07:34:43;2.87;;;1.50;;
22080;SDS011;11207;59.512;18.050;2023-05-29T07:37:11;4.33;;;1.67;;
22080;SDS011;11207;59.512;18.050;2023-05-29T07:39:36;4.53;;;1.70;;
22080;SDS011;11207;59.512;18.050;2023-05-29T07:42:02;1.47;;;1.37;;
22080;SDS011;11207;59.512;18.050;2023-05-29T07:44:28;6.07;;;1.57;;
22080;SDS011;11207;59.512;18.050;2023-05-29T07:46:54;4.32;;;1.45;;
22080;SDS011;11207;59.512;18.050;2023-05-29T07:49:20;3.23;;;1.50;;
22080;SDS011;11207;59.512;18.050;2023-05-29T07:51:46;3.95;;;1.83;;
22080;SDS011;11207;59.512;18.050;2023-05-29T07:54:12;1.67;;;1.42;;
22080;SDS011;11207;59.512;18.050;2023-05-29T07:56:37;2.95;;;1.35;;
22080;SDS011;11207;59.512;18.050;2023-05-29T07:59:03;2.57;;;1.30;;
22080;SDS011;11207;59.512;18.050;2023-05-29T08:01:29;6.53;;;1.95;;
22080;SDS011;11207;59.512;18.050;2023-05-29T08:03:55;3.75;;;1.27;;
22080;SDS011;11207;59.512;18.050;2023-05-29T08:06:20;3.42;;;1.42;;
22080;SDS011;11207;59.512;18.050;2023-05-29T08:08:46;2.73;;;1.40;;
22080;SDS011;11207;59.512;18.050;2023-05-29T08:11:12;2.47;;;1.50;;
22080;SDS011;11207;59.512;18.050;2023-05-29T08:13:38;3.78;;;1.55;;
22080;SDS011;11207;59.512;18.050;2023-05-29T08:16:04;2.83;;;1.20;;
22080;SDS011;11207;59.512;18.050;2023-05-29T08:18:30;4.82;;;1.60;;
22080;SDS011;11207;59.512;18.050;2023-05-29T08:20:57;2.92;;;1.52;;
22080;SDS011;11207;59.512;18.050;2023-05-29T08:23:23;3.70;;;1.60;;
22080;SDS011;11207;59.512;18.050;2023-05-29T08:25:49;2.62;;;1.30;;
22080;SDS011;11207;59.512;18.050;2023-05-29T08:28:15;2.12;;;1.20;;
22080;SDS011;11207;59.512;18.050;2023-05-29T08:30:41;3.37;;;1.40;;
22080;SDS011;11207;59.512;18.050;2023-05-29T08:33:07;3.25;;;1.27;;
22080;SDS011;11207;59.512;18.050;2023-05-29T08:35:32;3.75;;;1.08;;
22080;SDS011;11207;59.512;18.050;2023-05-29T08:37:58;4.95;;;1.33;;
22080;SDS011;11207;59.512;18.050;2023-05-29T08:40:24;5.15;;;1.27;;
22080;SDS011;11207;59.512;18.050;2023-05-29T08:42:51;4.50;;;1.40;;
22080;SDS011;11207;59.512;18.050;2023-05-29T08:45:24;3.67;;;1.55;;
22080;SDS011;11207;59.512;18.050;2023-05-29T08:47:51;3.22;;;1.27;;
22080;SDS011;11207;59.512;18.050;2023-05-29T08:50:19;4.37;;;1.25;;
22080;SDS011;11207;59.512;18.050;2023-05-29T08:52:46;3.05;;;1.10;;
22080;SDS011;11207;59.512;18.050;2023-05-29T08:55:12;2.30;;;1.20;;
22080;SDS011;11207;59.512;18.050;2023-05-29T08:57:38;1.00;;;0.80;;
22080;SDS011;11207;59.512;18.050;2023-05-29T09:00:05;4.12;;;1.23;;
22080;SDS011;11207;59.512;18.050;2023-05-29T09:02:41;3.30;;;1.45;;
22080;SDS011;11207;59.512;18.050;2023-05-29T09:05:08;3.42;;;1.67;;
22080;SDS011;11207;59.512;18.050;2023-05-29T09:07:38;3.67;;;1.40;;
22080;SDS011;11207;59.512;18.050;2023-05-29T09:10:08;6.35;;;1.55;;
22080;SDS011;11207;59.512;18.050;2023-05-29T09:12:34;1.55;;;1.00;;
22080;SDS011;11207;59.512;18.050;2023-05-29T09:15:00;6.40;;;1.65;;
22080;SDS011;11207;59.512;18.050;2023-05-29T09:17:33;1.33;;;1.23;;
22080;SDS011;11207;59.512;18.050;2023-05-29T09:19:58;3.47;;;1.20;;
22080;SDS011;11207;59.512;18.050;2023-05-29T09:22:25;2.15;;;1.20;;
22080;SDS011;11207;59.512;18.050;2023-05-29T09:24:51;2.62;;;1.00;;
22080;SDS011;11207;59.512;18.050;2023-05-29T09:27:18;1.23;;;0.77;;
22080;SDS011;11207;59.512;18.050;2023-05-29T09:29:45;2.35;;;1.60;;
22080;SDS011;11207;59.512;18.050;2023-05-29T09:34:38;2.20;;;1.12;;
22080;SDS011;11207;59.512;18.050;2023-05-29T09:37:05;6.72;;;1.00;;
22080;SDS011;11207;59.512;18.050;2023-05-29T09:42:12;3.08;;;1.25;;
22080;SDS011;11207;59.512;18.050;2023-05-29T09:44:41;2.50;;;1.30;;
22080;SDS011;11207;59.512;18.050;2023-05-29T09:47:08;3.25;;;1.50;;
22080;SDS011;11207;59.512;18.050;2023-05-29T09:49:34;2.53;;;1.15;;
22080;SDS011;11207;59.512;18.050;2023-05-29T09:52:03;6.20;;;1.30;;
22080;SDS011;11207;59.512;18.050;2023-05-29T09:54:30;4.50;;;1.25;;
22080;SDS011;11207;59.512;18.050;2023-05-29T09:56:57;4.57;;;1.40;;
22080;SDS011;11207;59.512;18.050;2023-05-29T09:59:23;4.30;;;1.60;;
22080;SDS011;11207;59.512;18.050;2023-05-29T10:01:53;4.32;;;1.25;;
22080;SDS011;11207;59.512;18.050;2023-05-29T10:04:32;3.58;;;1.50;;
22080;SDS011;11207;59.512;18.050;2023-05-29T10:07:06;5.07;;;1.80;;
22080;SDS011;11207;59.512;18.050;2023-05-29T10:09:38;4.53;;;1.40;;
22080;SDS011;11207;59.512;18.050;2023-05-29T10:12:09;2.47;;;1.20;;
22080;SDS011;11207;59.512;18.050;2023-05-29T10:14:36;1.83;;;1.25;;
22080;SDS011;11207;59.512;18.050;2023-05-29T10:17:06;5.30;;;1.48;;
22080;SDS011;11207;59.512;18.050;2023-05-29T10:19:34;2.62;;;1.40;;
22080;SDS011;11207;59.512;18.050;2023-05-29T10:22:01;2.60;;;1.40;;
22080;SDS011;11207;59.512;18.050;2023-05-29T10:24:29;2.28;;;1.12;;
22080;SDS011;11207;59.512;18.050;2023-05-29T10:26:56;4.12;;;1.42;;
22080;SDS011;11207;59.512;18.050;2023-05-29T10:29:31;0.80;;;0.80;;
22080;SDS011;11207;59.512;18.050;2023-05-29T10:32:15;0.75;;;0.75;;
22080;SDS011;11207;59.512;18.050;2023-05-29T10:37:42;1.00;;;1.00;;
22080;SDS011;11207;59.512;18.050;2023-05-29T10:40:23;5.95;;;1.42;;
22080;SDS011;11207;59.512;18.050;2023-05-29T10:42:51;1.35;;;0.80;;
22080;SDS011;11207;59.512;18.050;2023-05-29T10:47:55;1.87;;;0.90;;
22080;SDS011;11207;59.512;18.050;2023-05-29T10:50:35;0.70;;;0.70;;
22080;SDS011;11207;59.512;18.050;2023-05-29T10:53:06;3.03;;;1.10;;
22080;SDS011;11207;59.512;18.050;2023-05-29T10:55:39;1.95;;;1.05;;
22080;SDS011;11207;59.512;18.050;2023-05-29T10:58:13;0.93;;;0.90;;
22080;SDS011;11207;59.512;18.050;2023-05-29T11:00:46;1.58;;;1.12;;
22080;SDS011;11207;59.512;18.050;2023-05-29T11:03:25;1.17;;;0.90;;
22080;SDS011;11207;59.512;18.050;2023-05-29T11:06:05;0.70;;;0.70;;
22080;SDS011;11207;59.512;18.050;2023-05-29T11:08:55;1.65;;;0.77;;
22080;SDS011;11207;59.512;18.050;2023-05-29T11:11:31;1.55;;;0.98;;
22080;SDS011;11207;59.512;18.050;2023-05-29T11:14:01;1.58;;;1.00;;
22080;SDS011;11207;59.512;18.050;2023-05-29T11:18:57;1.48;;;1.00;;
22080;SDS011;11207;59.512;18.050;2023-05-29T11:24:22;3.55;;;1.00;;
22080;SDS011;11207;59.512;18.050;2023-05-29T11:26:52;5.20;;;1.30;;
22080;SDS011;11207;59.512;18.050;2023-05-29T11:29:23;3.25;;;1.08;;
22080;SDS011;11207;59.512;18.050;2023-05-29T11:31:57;2.33;;;1.25;;
22080;SDS011;11207;59.512;18.050;2023-05-29T11:34:28;1.08;;;0.70;;
22080;SDS011;11207;59.512;18.050;2023-05-29T11:36:56;2.35;;;1.10;;
22080;SDS011;11207;59.512;18.050;2023-05-29T11:39:23;1.52;;;1.25;;
22080;SDS011;11207;59.512;18.050;2023-05-29T11:41:52;1.60;;;1.10;;
22080;SDS011;11207;59.512;18.050;2023-05-29T11:44:19;4.15;;;1.20;;
22080;SDS011;11207;59.512;18.050;2023-05-29T11:46:45;1.45;;;0.90;;
22080;SDS011;11207;59.512;18.050;2023-05-29T11:49:11;3.33;;;1.48;;
22080;SDS011;11207;59.512;18.050;2023-05-29T11:51:36;2.70;;;1.30;;
22080;SDS011;11207;59.512;18.050;2023-05-29T11:54:02;2.97;;;1.25;;
22080;SDS011;11207;59.512;18.050;2023-05-29T11:56:28;1.17;;;0.85;;
22080;SDS011;11207;59.512;18.050;2023-05-29T11:58:55;0.98;;;0.90;;
22080;SDS011;11207;59.512;18.050;2023-05-29T12:01:24;4.93;;;1.30;;
22080;SDS011;11207;59.512;18.050;2023-05-29T12:03:51;3.08;;;1.05;;
22080;SDS011;11207;59.512;18.050;2023-05-29T12:06:30;3.15;;;1.25;;
22080;SDS011;11207;59.512;18.050;2023-05-29T12:08:57;1.35;;;1.20;;
22080;SDS011;11207;59.512;18.050;2023-05-29T12:11:23;2.47;;;1.08;;
22080;SDS011;11207;59.512;18.050;2023-05-29T12:13:55;2.30;;;1.10;;
22080;SDS011;11207;59.512;18.050;2023-05-29T12:16:27;2.20;;;1.02;;
22080;SDS011;11207;59.512;18.050;2023-05-29T12:18:55;3.15;;;1.08;;
22080;SDS011;11207;59.512;18.050;2023-05-29T12:21:21;1.45;;;0.88;;
22080;SDS011;11207;59.512;18.050;2023-05-29T12:23:51;2.80;;;0.82;;
22080;SDS011;11207;59.512;18.050;2023-05-29T12:26:18;2.70;;;1.30;;
22080;SDS011;11207;59.512;18.050;2023-05-29T12:28:45;1.10;;;0.93;;
22080;SDS011;11207;59.512;18.050;2023-05-29T12:31:11;1.35;;;1.10;;
22080;SDS011;11207;59.512;18.050;2023-05-29T12:33:40;2.80;;;0.98;;
22080;SDS011;11207;59.512;18.050;2023-05-29T12:36:08;5.80;;;1.23;;
22080;SDS011;11207;59.512;18.050;2023-05-29T12:38:46;1.37;;;1.00;;
22080;SDS011;11207;59.512;18.050;2023-05-29T12:41:25;2.75;;;0.95;;
22080;SDS011;11207;59.512;18.050;2023-05-29T12:43:57;1.98;;;1.05;;
22080;SDS011;11207;59.512;18.050;2023-05-29T12:46:26;3.67;;;1.40;;
22080;SDS011;11207;59.512;18.050;2023-05-29T12:48:53;2.03;;;1.10;;
22080;SDS011;11207;59.512;18.050;2023-05-29T12:51:24;1.02;;;0.90;;
22080;SDS011;11207;59.512;18.050;2023-05-29T12:53:51;3.90;;;1.15;;
22080;SDS011;11207;59.512;18.050;2023-05-29T12:56:20;3.78;;;1.33;;
22080;SDS011;11207;59.512;18.050;2023-05-29T12:58:51;8.85;;;1.27;;
22080;SDS011;11207;59.512;18.050;2023-05-29T13:01:17;2.00;;;1.00;;
22080;SDS011;11207;59.512;18.050;2023-05-29T13:03:43;2.78;;;1.40;;
22080;SDS011;11207;59.512;18.050;2023-05-29T13:06:09;4.25;;;0.80;;
22080;SDS011;11207;59.512;18.050;2023-05-29T13:08:35;4.00;;;1.12;;
22080;SDS011;11207;59.512;18.050;2023-05-29T13:11:01;2.80;;;1.17;;
22080;SDS011;11207;59.512;18.050;2023-05-29T13:13:27;2.17;;;1.30;;
22080;SDS011;11207;59.512;18.050;2023-05-29T13:15:52;4.30;;;1.15;;
22080;SDS011;11207;59.512;18.050;2023-05-29T13:18:18;3.35;;;1.00;;
22080;SDS011;11207;59.512;18.050;2023-05-29T13:20:44;1.98;;;1.10;;
22080;SDS011;11207;59.512;18.050;2023-05-29T13:23:09;1.87;;;1.20;;
22080;SDS011;11207;59.512;18.050;2023-05-29T13:25:35;3.60;;;1.30;;
22080;SDS011;11207;59.512;18.050;2023-05-29T13:28:01;7.00;;;1.45;;
22080;SDS011;11207;59.512;18.050;2023-05-29T13:30:26;2.22;;;1.70;;
22080;SDS011;11207;59.512;18.050;2023-05-29T13:32:52;2.70;;;1.10;;
22080;SDS011;11207;59.512;18.050;2023-05-29T13:35:18;1.58;;;0.73;;
22080;SDS011;11207;59.512;18.050;2023-05-29T13:37:44;3.05;;;1.37;;
22080;SDS011;11207;59.512;18.050;2023-05-29T13:40:10;1.48;;;1.12;;
22080;SDS011;11207;59.512;18.050;2023-05-29T13:42:38;2.40;;;1.10;;
22080;SDS011;11207;59.512;18.050;2023-05-29T13:45:04;1.12;;;0.80;;
22080;SDS011;11207;59.512;18.050;2023-05-29T13:47:31;2.72;;;1.27;;
22080;SDS011;11207;59.512;18.050;2023-05-29T13:49:58;2.55;;;1.37;;
22080;SDS011;11207;59.512;18.050;2023-05-29T13:52:23;2.08;;;1.15;;
22080;SDS011;11207;59.512;18.050;2023-05-29T13:54:50;2.42;;;1.10;;
22080;SDS011;11207;59.512;18.050;2023-05-29T13:57:15;2.05;;;1.00;;
22080;SDS011;11207;59.512;18.050;2023-05-29T13:59:41;1.87;;;1.10;;
22080;SDS011;11207;59.512;18.050;2023-05-29T14:02:07;3.78;;;1.00;;
22080;SDS011;11207;59.512;18.050;2023-05-29T14:04:33;3.42;;;1.30;;
22080;SDS011;11207;59.512;18.050;2023-05-29T14:07:00;3.40;;;1.30;;
22080;SDS011;11207;59.512;18.050;2023-05-29T14:09:26;1.08;;;0.98;;
22080;SDS011;11207;59.512;18.050;2023-05-29T14:11:53;1.83;;;1.05;;
22080;SDS011;11207;59.512;18.050;2023-05-29T14:14:27;1.15;;;1.00;;
22080;SDS011;11207;59.512;18.050;2023-05-29T14:16:53;1.10;;;1.00;;
22080;SDS011;11207;59.512;18.050;2023-05-29T14:19:19;4.05;;;1.33;;
22080;SDS011;11207;59.512;18.050;2023-05-29T14:21:46;4.80;;;1.60;;
22080;SDS011;11207;59.512;18.050;2023-05-29T14:24:12;3.20;;;1.08;;
22080;SDS011;11207;59.512;18.050;2023-05-29T14:26:38;3.80;;;1.23;;
22080;SDS011;11207;59.512;18.050;2023-05-29T14:29:04;3.00;;;1.20;;
22080;SDS011;11207;59.512;18.050;2023-05-29T14:31:31;2.97;;;1.30;;
22080;SDS011;11207;59.512;18.050;2023-05-29T14:33:57;3.15;;;1.10;;
22080;SDS011;11207;59.512;18.050;2023-05-29T14:36:23;2.83;;;1.27;;
22080;SDS011;11207;59.512;18.050;2023-05-29T14:38:48;2.20;;;1.30;;
22080;SDS011;11207;59.512;18.050;2023-05-29T14:41:14;2.08;;;1.30;;
22080;SDS011;11207;59.512;18.050;2023-05-29T14:43:41;1.73;;;1.10;;
22080;SDS011;11207;59.512;18.050;2023-05-29T14:46:08;3.58;;;1.48;;
22080;SDS011;11207;59.512;18.050;2023-05-29T14:48:34;1.98;;;1.10;;
22080;SDS011;11207;59.512;18.050;2023-05-29T14:50:59;5.78;;;1.52;;
22080;SDS011;11207;59.512;18.050;2023-05-29T14:53:26;1.70;;;1.33;;
22080;SDS011;11207;59.512;18.050;2023-05-29T14:55:51;5.05;;;1.37;;
22080;SDS011;11207;59.512;18.050;2023-05-29T14:58:17;2.33;;;1.27;;